Tiempo atmosférico en la estación meteorológica de Tinajo, Las Palmas (275 m.)



Fecha
DESCASC
Temp. máxima en grados centígrados (hora)
DESCASC
Temp. mínima en grados centígrados (hora)
DESCASC
Temp. media en grados centígrados
DESCASC
Racha de viento máxima en m/sg (hora)
DESCASC
Velocidad máxima media en intervalos de 10 minutos(hora)
DESCASC
Precipitaciones diarias en mm
DESCASC
Precipitaciones de 00:00 a 06:00 en mm
DESCASC
Precipitaciones de 06:00 a 12:00 en mm
DESCASC
Precipitaciones de 12:00 a 18:00 en mm
DESCASC
Precipitaciones de 18:00 a 24:00 en mm
DESCASC
22-01-2020 17.6 (13:50) 10.6 (05:10) 14.1 8.89 (15:50) 5.83 (15:50) 0 0 0 0 0
21-01-2020 15.4 (14:50) 11.2 (02:30) 13.3 10 (01:30) 6.67 (01:30) 0.6 0.6 0 0 0
20-01-2020 16.6 (12:00) 13.3 (22:00) 15 14.17 (14:10) 10 (13:20) 0 0 0 0 0
19-01-2020 18.9 (12:10) 11.7 (00:00) 15.3 11.94 (13:50) 7.22 (13:30) 0 0 0 0 0
18-01-2020 21.9 (13:50) 10.2 (00:00) 16 9.44 (14:00) 6.67 (12:00) 0 0 0 0 0
17-01-2020 19.2 (13:20) 9.8 (00:00) 14.5 12.22 (11:40) 8.33 (11:50) 0 0 0 0 0
16-01-2020 19.8 (12:30) 10.5 (00:00) 15.1 8.89 (14:30) 5.83 (10:40) 0 0 0 0 0
15-01-2020 18.7 (11:40) 10 (00:00) 14.4 10.83 (12:40) 7.78 (12:50) 0 0 0 0 0
14-01-2020 18.3 (13:00) 10.9 (00:00) 14.6 16.11 (12:00) 10.28 (12:00) 0 0 0 0 0
13-01-2020 18.7 (14:00) 12.9 (00:00) 15.8 12.22 (15:00) 8.89 (15:00) 0 0 0 0 0
12-01-2020 18.6 (13:40) 12.2 (00:00) 15.4 13.06 (14:00) 9.44 (14:00) 0 0 0 0 0
11-01-2020 16.7 (12:10) 13.8 (00:00) 15.3 14.17 (08:30) 8.33 (13:20) 0 0 0 0 0
10-01-2020 18 (13:00) 14.4 (00:00) 16.2 18.33 (05:20) 10.83 (10:30) 0.6 0.4 0.2 0 0
09-01-2020 17.9 (13:20) 13.9 (00:00) 15.9 13.61 (23:50) 8.61 (14:10) 0 0 0 0 0
08-01-2020 17.8 (11:00) 13 (00:00) 15.4 12.22 (23:50) 6.67 (00:30) 0 0 0 0 0
07-01-2020 18.9 (12:50) 11.8 (00:00) 15.3 11.39 (23:20) 6.39 (11:00) 0 0 0 0 0
06-01-2020 17.4 (12:20) 13.2 (00:00) 15.3 12.22 (17:00) 8.33 (16:50) 0 0 0 0 0
05-01-2020 17.7 (15:10) 12.8 (00:00) 15.3 8.89 (15:20) 5.28 (15:20) 0 0 0 0 0
04-01-2020 18.5 (13:50) 11 (00:00) 14.8 10.56 (13:50) 6.11 (11:50) 0 0 0 0 0
03-01-2020 18 (12:20) 11.3 (00:00) 14.7 11.67 (12:40) 9.17 (11:50) 0 0 0 0 0
02-01-2020 17.2 (13:10) 11.3 (00:00) 14.3 13.33 (12:10) 9.44 (11:30) 0 0 0 0 0
01-01-2020 17.1 (11:20) 13.6 (00:00) 15.4 15.56 (14:30) 11.39 (14:30) 0 0 0 0 0
31-12-2019 -- (--) -- (--) -- -- (--) -- (--) -- -- -- 0 0
30-12-2019 -- (--) -- (--) -- -- (--) -- (--) -- 0 0 -- 0
29-12-2019 21.9 (12:40) 16.5 (00:00) 19.2 15.56 (15:40) 11.67 (15:30) 0 0 0 0 0
28-12-2019 23.5 (12:00) 17.5 (00:00) 20.5 14.72 (11:50) 11.11 (12:30) 0 0 0 0 0
27-12-2019 24.1 (14:40) 15.6 (00:00) 19.9 11.94 (12:20) 8.89 (13:00) 0 0 0 0 0
26-12-2019 21.9 (14:10) 17.4 (00:00) 19.6 12.5 (17:00) 9.44 (17:20) 0 0 0 0 0
25-12-2019 22.5 (14:30) 18 (00:00) 20.3 13.89 (03:30) 9.72 (13:00) 0 0 0 0 0

Gráficas

Temp. máximas Temp. mínimas Temp. medias Precipitaciones Rachas de viento máximas Velocidades máximas media en intervalos de 10 minutos

Datos horarios

Fecha y hora oficial Temperatura (ºC) Velocidad del viento (km/h) Dirección del viento Racha (km/h) Dirección de racha Precipitación (mm) Presión (hPa) Tendencia (hPa) Humedad (%)
2020-01-23 23:00:00 12.4 7 Sudoeste 9 Sudoeste 0 -- -- 78
2020-01-23 22:00:00 12.9 6 Sudoeste 11 Sudoeste 0 -- -- 77
2020-01-23 21:00:00 13.4 8 Sudoeste 18 Oeste 0 -- -- 75
2020-01-23 20:00:00 14.8 15 Oeste 26 Oeste 0 -- -- 67
2020-01-23 19:00:00 15.2 14 Oeste 25 Oeste 0 -- -- 68
2020-01-23 18:00:00 15.8 14 Oeste 31 Oeste 0 -- -- 65
2020-01-23 17:00:00 16.6 14 Oeste 28 Oeste 0 -- -- 59
2020-01-23 16:00:00 17.4 17 Oeste 31 Oeste 0 -- -- 55
2020-01-23 15:00:00 17.5 17 Oeste 30 Oeste 0 -- -- 53
2020-01-23 14:00:00 17.7 19 Oeste 33 Noroeste 0 -- -- 53
2020-01-23 13:00:00 17.8 21 Noroeste 30 Oeste 0 -- -- 53
2020-01-23 12:00:00 16.7 17 Oeste 28 Oeste 0 -- -- 60
2020-01-23 11:00:00 16.4 15 Oeste 27 Oeste 0 -- -- 68
2020-01-23 10:00:00 15.2 19 Oeste 27 Oeste 0 -- -- 73
2020-01-23 09:00:00 14 11 Oeste 21 Oeste 0 -- -- 81
2020-01-23 08:00:00 13.3 15 Oeste 27 Oeste 0 -- -- 83
2020-01-23 07:00:00 11.5 10 Oeste 16 Sudoeste 0 -- -- 90
2020-01-23 06:00:00 12.2 13 Sudoeste 22 Sudoeste 0 -- -- 87
2020-01-23 05:00:00 11.8 9 Sudoeste 18 Sudoeste 0 -- -- 89
2020-01-23 04:00:00 12.5 13 Sudoeste 32 Sudoeste 0.2 -- -- 87
2020-01-23 03:00:00 12.3 12 Sudoeste 19 Sudoeste 0 -- -- 86
2020-01-23 02:00:00 12.7 14 Sudoeste 19 Sudoeste 0 -- -- 82
2020-01-23 01:00:00 12.3 6 Sudoeste 11 Sudoeste 0 -- -- 81
2020-01-23 00:00:00 13.3 9 Sudoeste 18 Sudoeste 0 -- -- 80
2020-01-22 23:00:00 14 8 Oeste 14 Oeste 0 -- -- 75
2020-01-22 22:00:00 14.2 9 Oeste 19 Noroeste 0 -- -- 75
2020-01-22 21:00:00 14.5 12 Oeste 18 Oeste 0 -- -- 68
2020-01-22 20:00:00 14.2 9 Oeste 13 Oeste 0 -- -- 69
2020-01-22 19:00:00 14.4 9 Oeste 21 Oeste 0 -- -- 66
2020-01-22 18:00:00 15.5 13 Oeste 27 Noroeste 0 -- -- 61
2020-01-22 17:00:00 16.3 18 Noroeste 28 Oeste 0 -- -- 57
2020-01-22 16:00:00 16.7 19 Oeste 32 Oeste 0 -- -- 55
2020-01-22 15:00:00 17.2 16 Noroeste 29 Noroeste 0 -- -- 57
2020-01-22 14:00:00 17.6 11 Noroeste 25 Noroeste 0 -- -- 49
2020-01-22 13:00:00 17.2 15 Oeste 26 Oeste 0 -- -- 51
2020-01-22 12:00:00 16.2 13 Oeste 26 Oeste 0 -- -- 54
2020-01-22 11:00:00 15.3 13 Oeste 20 Oeste 0 -- -- 63
2020-01-22 10:00:00 14.8 10 Oeste 15 Noroeste 0 -- -- 66
2020-01-22 09:00:00 11.7 0 Calma 8 Oeste 0 -- -- 79
2020-01-22 08:00:00 11.1 6 Oeste 9 Sudoeste 0 -- -- 80
2020-01-22 07:00:00 11.1 8 Oeste 10 Sudoeste 0 -- -- 79
2020-01-22 06:00:00 11.2 8 Sudoeste 10 Oeste 0 -- -- 81
2020-01-22 05:00:00 10.7 3 Oeste 5 Noroeste 0 -- -- 81
2020-01-22 04:00:00 11.7 2 Noroeste 13 Noroeste 0 -- -- 76
2020-01-22 03:00:00 11.8 3 Noroeste 19 Noroeste 0 -- -- 73
2020-01-22 02:00:00 12.7 6 Noroeste 18 Noroeste 0 -- -- 71
2020-01-22 01:00:00 13 12 Noroeste 21 Noroeste 0 -- -- 71
2020-01-22 00:00:00 13.2 15 Noroeste 23 Noroeste 0 -- -- 69
2020-01-21 23:00:00 13.2 14 Noroeste 27 Noroeste 0 -- -- 67
2020-01-21 22:00:00 13.3 17 Noroeste 25 Noroeste 0 -- -- 72
2020-01-21 21:00:00 13.2 11 Noroeste 17 Noroeste 0 -- -- 72
2020-01-21 20:00:00 12.7 8 Noroeste 16 Norte 0 -- -- 65
2020-01-21 19:00:00 13 9 Norte 17 Noroeste 0 -- -- 69
2020-01-21 18:00:00 13.8 12 Noroeste 21 Noroeste 0 -- -- 68
2020-01-21 17:00:00 13.9 10 Norte 23 Norte 0 -- -- 64
2020-01-21 16:00:00 14.4 13 Norte 26 Noroeste 0 -- -- 61
2020-01-21 15:00:00 15.1 15 Norte 25 Norte 0 -- -- 64
2020-01-21 14:00:00 14.5 14 Norte 26 Norte 0 -- -- 65
2020-01-21 13:00:00 14.2 13 Norte 26 Norte 0 -- -- 67
2020-01-21 12:00:00 14.3 15 Norte 27 Norte 0 -- -- 65
2020-01-21 11:00:00 13.9 14 Noroeste 34 Noroeste 0 -- -- 68
2020-01-21 10:00:00 13.7 21 Noroeste 30 Noroeste 0 -- -- 69
2020-01-21 09:00:00 12.7 12 Noroeste 27 Noroeste 0 -- -- 74
2020-01-21 08:00:00 11.4 2 Norte 20 Norte 0 -- -- 79
2020-01-21 07:00:00 11.9 14 Norte 29 Noroeste 0 -- -- 79
2020-01-21 06:00:00 12.1 10 Noroeste 22 Norte 0 -- -- 74
2020-01-21 05:00:00 12.1 9 Norte 27 Noroeste 0 -- -- 75
2020-01-21 04:00:00 12.1 14 Noroeste 28 Norte 0 -- -- 73
2020-01-21 03:00:00 11.6 13 Noroeste 31 Noroeste 0.6 -- -- 86
2020-01-21 02:00:00 12.1 23 Noroeste 36 Norte 0 -- -- 73
2020-01-21 01:00:00 12.9 15 Noroeste 27 Norte 0 -- -- 54
2020-01-21 00:00:00 13.4 18 Norte 35 Norte 0 -- -- 54
2020-01-20 23:00:00 13.3 22 Norte 36 Norte 0 -- -- 62
2020-01-20 22:00:00 13.3 19 Norte 38 Noroeste 0 -- -- 56
2020-01-20 21:00:00 13.5 27 Noroeste 45 Norte 0 -- -- 52
2020-01-20 20:00:00 13.7 27 Norte 43 Norte 0 -- -- 59
2020-01-20 19:00:00 13.8 30 Norte 48 Norte 0 -- -- 58
2020-01-20 18:00:00 14.3 23 Norte 42 Norte 0 -- -- 60
2020-01-20 17:00:00 14.6 26 Norte 42 Norte 0 -- -- 58
2020-01-20 16:00:00 15 25 Norte 43 Norte 0 -- -- 54
2020-01-20 15:00:00 16 29 Norte 51 Norte 0 -- -- 47
2020-01-20 14:00:00 16.2 31 Norte 49 Norte 0 -- -- 52
2020-01-20 13:00:00 15.8 29 Norte 46 Norte 0 -- -- 54
2020-01-20 12:00:00 16.6 24 Norte 44 Norte 0 -- -- 55
2020-01-20 11:00:00 15.9 30 Norte 44 Norte 0 -- -- 55
2020-01-20 10:00:00 15.3 27 Norte 45 Norte 0 -- -- 57
2020-01-20 09:00:00 14.8 26 Norte 45 Norte 0 -- -- 69
2020-01-20 08:00:00 14.7 27 Norte 47 Norte 0 -- -- 69
2020-01-20 07:00:00 14.6 28 Norte 48 Norte 0 -- -- 71
2020-01-20 06:00:00 14.4 32 Norte 47 Norte 0 -- -- 68
2020-01-20 05:00:00 13.9 28 Norte 46 Nordeste 0 -- -- 75
2020-01-20 04:00:00 14.2 26 Norte 46 Norte 0 -- -- 67
2020-01-20 03:00:00 14.2 30 Norte 46 Norte 0 -- -- 70
2020-01-20 02:00:00 14.2 23 Norte 41 Norte 0 -- -- 70
2020-01-20 01:00:00 14.4 23 Norte 40 Nordeste 0 -- -- 70
2020-01-20 00:00:00 14.5 20 Norte 39 Norte 0 -- -- 72
2020-01-19 23:00:00 14.7 21 Norte 41 Nordeste 0 -- -- 74
2020-01-19 22:00:00 15 25 Nordeste 39 Nordeste 0 -- -- 81
2020-01-19 21:00:00 15.4 14 Norte 27 Norte 0 -- -- 87
2020-01-19 20:00:00 15.1 19 Nordeste 37 Nordeste 0 -- -- 92
2020-01-19 19:00:00 15.5 19 Norte 37 Norte 0 -- -- 88
2020-01-19 18:00:00 15.7 20 Nordeste 35 Norte 0 -- -- 90
2020-01-19 17:00:00 16.1 26 Nordeste 40 Nordeste 0 -- -- 85
2020-01-19 16:00:00 17.8 23 Nordeste 37 Norte 0 -- -- 71
2020-01-19 15:00:00 17.8 22 Nordeste 33 Norte 0 -- -- 73
2020-01-19 14:00:00 18.5 23 Nordeste 43 Nordeste 0 -- -- 67
2020-01-19 13:00:00 18.8 22 Nordeste 31 Nordeste 0 -- -- 66
2020-01-19 12:00:00 18.5 15 Nordeste 27 Nordeste 0 -- -- 64
2020-01-19 11:00:00 17.9 18 Nordeste 25 Nordeste 0 -- -- 67
2020-01-19 10:00:00 16.7 8 Este 16 Este 0 -- -- 68
2020-01-19 09:00:00 13.5 5 Este 12 Este 0 -- -- 85
2020-01-19 08:00:00 11.7 4 Sudeste 10 Este 0 -- -- 87
2020-01-19 07:00:00 12.7 7 Este 27 Nordeste 0 -- -- 86
2020-01-19 06:00:00 14.6 16 Nordeste 30 Nordeste 0 -- -- 83
2020-01-19 05:00:00 14.5 20 Nordeste 29 Nordeste 0 -- -- 82
2020-01-19 04:00:00 14.5 17 Nordeste 23 Norte 0 -- -- 83
2020-01-19 03:00:00 14.2 13 Nordeste 26 Norte 0 -- -- 79
2020-01-19 02:00:00 14.4 17 Nordeste 24 Nordeste 0 -- -- 90
2020-01-19 01:00:00 14.6 10 Nordeste 22 Nordeste 0 -- -- 88
2020-01-19 00:00:00 14.3 9 Nordeste 20 Nordeste 0 -- -- 76
2020-01-18 23:00:00 14.7 8 Nordeste 26 Nordeste 0 -- -- 72
2020-01-18 22:00:00 14.5 12 Nordeste 18 Nordeste 0 -- -- 83
2020-01-18 21:00:00 13.7 4 Sudeste 14 Este 0 -- -- 81
2020-01-18 20:00:00 14.9 11 Este 14 Este 0 -- -- 77
2020-01-18 19:00:00 16 8 Este 19 Nordeste 0 -- -- 65
2020-01-18 18:00:00 18.8 13 Nordeste 24 Este 0 -- -- 51
2020-01-18 17:00:00 21 16 Este 28 Este 0 -- -- 22
2020-01-18 16:00:00 21.4 18 Este 31 Este 0 -- -- 22
2020-01-18 15:00:00 21.8 21 Este 32 Este 0 -- -- 20
2020-01-18 14:00:00 21.8 23 Este 34 Este 0 -- -- 20
2020-01-18 13:00:00 21.8 22 Sudeste 32 Sudeste 0 -- -- 23
2020-01-18 12:00:00 21 24 Sudeste 32 Este 0 -- -- 24
2020-01-18 11:00:00 20.4 23 Este 30 Este 0 -- -- 25
2020-01-18 10:00:00 18.5 21 Este 28 Este 0 -- -- 31
2020-01-18 09:00:00 13.6 13 Sur 19 Sudeste 0 -- -- 79
2020-01-18 08:00:00 11.3 16 Sudeste 19 Sudeste 0 -- -- 83
2020-01-18 07:00:00 10.9 12 Sudeste 17 Sudeste 0 -- -- 83
2020-01-18 06:00:00 11.2 10 Sudeste 14 Sudeste 0 -- -- 84
2020-01-18 05:00:00 11.5 13 Sudeste 17 Sudeste 0 -- -- 69
2020-01-18 04:00:00 11.4 8 Sudeste 10 Sudeste 0 -- -- 56
2020-01-18 03:00:00 10.2 5 Sudeste 6 Este 0 -- -- 74
2020-01-18 02:00:00 11.2 2 Sudeste 6 Sudeste 0 -- -- 74
2020-01-18 01:00:00 11.7 4 Sudeste 5 Este 0 -- -- 73
2020-01-18 00:00:00 11.6 0 Calma 8 Este 0 -- -- 70
2020-01-17 23:00:00 12 3 Este 8 Este 0 -- -- 51
2020-01-17 22:00:00 13.8 2 Nordeste 15 Sudeste 0 -- -- 38
2020-01-17 21:00:00 14.8 14 Este 18 Este 0 -- -- 41
2020-01-17 20:00:00 14.4 11 Sudeste 13 Sudeste 0 -- -- 41
2020-01-17 19:00:00 15.1 8 Este 22 Sudeste 0 -- -- 53
2020-01-17 18:00:00 16.8 13 Este 23 Sudeste 0 -- -- 54
2020-01-17 17:00:00 18.2 15 Este 27 Este 0 -- -- 43
2020-01-17 16:00:00 18.6 21 Este 30 Este 0 -- -- 38
2020-01-17 15:00:00 18.9 19 Este 33 Este 0 -- -- 41
2020-01-17 14:00:00 19.1 24 Este 39 Este 0 -- -- 38
2020-01-17 13:00:00 18.9 28 Este 40 Este 0 -- -- 37
2020-01-17 12:00:00 18.5 30 Este 44 Este 0 -- -- 34
2020-01-17 11:00:00 17.8 29 Este 40 Este 0 -- -- 52
2020-01-17 10:00:00 16.3 24 Este 35 Este 0 -- -- 52
2020-01-17 09:00:00 14.5 22 Este 31 Este 0 -- -- 71
2020-01-17 08:00:00 11.7 18 Este 27 Este 0 -- -- 71
2020-01-17 07:00:00 11.5 14 Este 23 Este 0 -- -- 71
2020-01-17 06:00:00 11.6 18 Este 22 Este 0 -- -- 72
2020-01-17 05:00:00 10.4 4 Este 10 Nordeste 0 -- -- 59
2020-01-17 04:00:00 10.2 6 Sudeste 9 Este 0 -- -- 47
2020-01-17 03:00:00 10.4 7 Este 10 Este 0 -- -- 34
2020-01-17 02:00:00 11.8 9 Este 12 Este 0 -- -- 31
2020-01-17 01:00:00 13.1 11 Este 16 Este 0 -- -- 29
2020-01-17 00:00:00 13.6 10 Este 21 Este 0 -- -- 30
2020-01-16 23:00:00 13.6 18 Este 23 Este 0 -- -- 32
2020-01-16 22:00:00 12.8 6 Sudeste 9 Sudeste 0 -- -- 28
2020-01-16 21:00:00 13.1 4 Sudeste 9 Sudeste 0 -- -- 34
2020-01-16 20:00:00 14 4 Sudeste 9 Sudeste 0 -- -- 30
2020-01-16 19:00:00 15.3 5 Sudeste 17 Este 0 -- -- 36
2020-01-16 18:00:00 17.3 14 Sudeste 20 Sudeste 0 -- -- 32
2020-01-16 17:00:00 18.2 14 Sudeste 22 Este 0 -- -- 31
2020-01-16 16:00:00 18.9 15 Sudeste 28 Sudeste 0 -- -- 27
2020-01-16 15:00:00 19.1 16 Sudeste 32 Sudeste 0 -- -- 32
2020-01-16 14:00:00 19.2 15 Sudeste 28 Sudeste 0 -- -- 32
2020-01-16 13:00:00 19.5 17 Sudeste 27 Sudeste 0 -- -- 30
2020-01-16 12:00:00 19.4 18 Sudeste 28 Sudeste 0 -- -- 29
2020-01-16 11:00:00 18.2 19 Sur 27 Sudeste 0 -- -- 39
2020-01-16 10:00:00 16.3 19 Sudeste 26 Sudeste 0 -- -- 58
2020-01-16 09:00:00 12.9 14 Sudeste 19 Sudeste 0 -- -- 78
2020-01-16 08:00:00 10.7 18 Sudeste 24 Sudeste 0 -- -- 82
2020-01-16 07:00:00 10.9 18 Sudeste 22 Sudeste 0 -- -- 82
2020-01-16 06:00:00 10.6 16 Sur 19 Sudeste 0 -- -- 82
2020-01-16 05:00:00 11.5 17 Sudeste 21 Sudeste 0 -- -- 82
2020-01-16 04:00:00 11.6 17 Sudeste 22 Sudeste 0 -- -- 81
2020-01-16 03:00:00 12.1 15 Sudeste 22 Sudeste 0 -- -- 83
2020-01-16 02:00:00 12 17 Sudeste 19 Sudeste 0 -- -- 79
2020-01-16 01:00:00 12.2 13 Sudeste 21 Sudeste 0 -- -- 68
2020-01-16 00:00:00 11.7 10 Sudeste 21 Sudeste 0 -- -- 55
2020-01-15 23:00:00 12.1 14 Sudeste 16 Sudeste 0 -- -- 52
2020-01-15 22:00:00 12.1 10 Sudeste 12 Sudeste 0 -- -- 53
2020-01-15 21:00:00 12.6 10 Sur 16 Sudeste 0 -- -- 59
2020-01-15 20:00:00 13.6 13 Sudeste 18 Sudeste 0 -- -- 56
2020-01-15 19:00:00 14.8 13 Sudeste 18 Sudeste 0 -- -- 49
2020-01-15 18:00:00 16.6 15 Sudeste 22 Sudeste 0 -- -- 38
2020-01-15 17:00:00 17.9 14 Sudeste 23 Sudeste 0 -- -- 33
2020-01-15 16:00:00 18.3 17 Sur 28 Sur 0 -- -- 35
2020-01-15 15:00:00 18.4 21 Sur 32 Sudeste 0 -- -- 34
2020-01-15 14:00:00 18.5 26 Sudeste 35 Sudeste 0 -- -- 33
2020-01-15 13:00:00 18.7 25 Sur 39 Sudeste 0 -- -- 34
2020-01-15 12:00:00 18.7 26 Sur 35 Sur 0 -- -- 32
2020-01-15 11:00:00 17.9 22 Sur 30 Sudeste 0 -- -- 36
2020-01-15 10:00:00 16.2 19 Sudeste 26 Sur 0 -- -- 56
2020-01-15 09:00:00 12.7 12 Sur 17 Sur 0 -- -- 82
2020-01-15 08:00:00 10.4 14 Sudeste 24 Sudeste 0 -- -- 81
2020-01-15 07:00:00 12.3 21 Sudeste 27 Sudeste 0 -- -- 78
2020-01-15 06:00:00 11.2 16 Sudeste 21 Sudeste 0 -- -- 82
2020-01-15 05:00:00 10.7 14 Sudeste 20 Sudeste 0 -- -- 82
2020-01-15 04:00:00 10.9 14 Sudeste 18 Sudeste 0 -- -- 79
2020-01-15 03:00:00 11 14 Sudeste 16 Sudeste 0 -- -- 71
2020-01-15 02:00:00 10.7 11 Sudeste 13 Sudeste 0 -- -- 55
2020-01-15 01:00:00 10 4 Sudeste 7 Sudeste 0 -- -- 70
2020-01-15 00:00:00 10.9 6 Sudeste 10 Sur 0 -- -- 75
2020-01-14 23:00:00 11.7 10 Sudeste 12 Sudeste 0 -- -- 66
2020-01-14 22:00:00 12 10 Sudeste 13 Sudeste 0 -- -- 52
2020-01-14 21:00:00 13.1 4 Sur 9 Sudoeste 0 -- -- 49
2020-01-14 20:00:00 13.4 7 Sudoeste 11 Sudoeste 0 -- -- 50
2020-01-14 19:00:00 15.2 10 Sur 29 Sur 0 -- -- 49
2020-01-14 18:00:00 16.4 23 Sur 35 Sur 0 -- -- 38
2020-01-14 17:00:00 17.6 23 Sur 39 Sur 0 -- -- 37
2020-01-14 16:00:00 18.1 28 Sur 43 Sur 0 -- -- 35
2020-01-14 15:00:00 18.2 28 Sur 42 Sur 0 -- -- 40
2020-01-14 14:00:00 18.1 29 Sur 49 Sur 0 -- -- 39
2020-01-14 13:00:00 18.3 29 Sur 48 Sur 0 -- -- 37
2020-01-14 12:00:00 17.8 37 Sur 58 Sur 0 -- -- 37
2020-01-14 11:00:00 17.6 32 Sudeste 46 Sudeste 0 -- -- 43
2020-01-14 10:00:00 16.2 34 Sudeste 46 Sudeste 0 -- -- 47
2020-01-14 09:00:00 14.4 26 Sur 33 Sudeste 0 -- -- 65
2020-01-14 08:00:00 12.3 22 Sur 27 Sudeste 0 -- -- 67
2020-01-14 07:00:00 12.2 16 Sur 20 Sur 0 -- -- 66
2020-01-14 06:00:00 12.6 13 Sur 22 Sur 0 -- -- 64
2020-01-14 05:00:00 12.4 15 Sudeste 20 Sudeste 0 -- -- 71
2020-01-14 04:00:00 13.2 15 Sudeste 27 Sudeste 0 -- -- 74
2020-01-14 03:00:00 14.4 19 Sudeste 33 Sudeste 0 -- -- 63
2020-01-14 02:00:00 13.8 17 Sudeste 28 Sudeste 0 -- -- 68
2020-01-14 01:00:00 14 18 Este 29 Este 0 -- -- 70
2020-01-14 00:00:00 14.8 21 Sudeste 32 Sudeste 0 -- -- 60
2020-01-13 23:00:00 14.2 15 Sudeste 22 Sudeste 0 -- -- 59
2020-01-13 22:00:00 13.5 14 Sudeste 20 Sudeste 0 -- -- 59
2020-01-13 21:00:00 14.5 14 Sudeste 21 Sudeste 0 -- -- 50
2020-01-13 20:00:00 14.9 14 Sudeste 24 Sudeste 0 -- -- 47
2020-01-13 19:00:00 15.4 20 Sudeste 30 Sudeste 0 -- -- 47
2020-01-13 18:00:00 16.6 24 Sudeste 36 Sudeste 0 -- -- 43
2020-01-13 17:00:00 17.8 24 Sudeste 38 Sudeste 0 -- -- 40
2020-01-13 16:00:00 18.3 30 Sudeste 42 Sudeste 0 -- -- 35
2020-01-13 15:00:00 18.5 32 Sudeste 44 Sudeste 0 -- -- 36
2020-01-13 14:00:00 18.7 27 Sudeste 41 Sudeste 0 -- -- 38
2020-01-13 13:00:00 18.2 27 Sudeste 39 Sudeste 0 -- -- 42
2020-01-13 12:00:00 17.7 26 Sudeste 40 Sudeste 0 -- -- 46
2020-01-13 11:00:00 17.5 19 Sudeste 36 Sudeste 0 -- -- 48
2020-01-13 10:00:00 15.9 19 Sudeste 30 Sudeste 0 -- -- 56
2020-01-13 09:00:00 14.8 18 Este 33 Este 0 -- -- 67
2020-01-13 08:00:00 14 18 Este 31 Este 0 -- -- 78
2020-01-13 07:00:00 14 23 Este 32 Este 0 -- -- 79
2020-01-13 06:00:00 14.2 23 Este 37 Este 0 -- -- 76
2020-01-13 05:00:00 14.2 23 Este 39 Este 0 -- -- 77
2020-01-13 04:00:00 14.3 27 Este 39 Este 0 -- -- 70
2020-01-13 03:00:00 13.7 24 Este 32 Este 0 -- -- 83
2020-01-13 02:00:00 13.3 17 Este 24 Este 0 -- -- 86
2020-01-13 01:00:00 13.3 13 Este 19 Este 0 -- -- 80
2020-01-13 00:00:00 13.4 11 Este 24 Nordeste 0 -- -- 74
2020-01-12 23:00:00 12.2 10 Este 17 Este 0 -- -- 73
2020-01-12 22:00:00 12.8 3 Este 9 Este 0 -- -- 66
2020-01-12 21:00:00 12.8 7 Este 9 Este 0 -- -- 63
2020-01-12 20:00:00 13.1 5 Este 9 Este 0 -- -- 59
2020-01-12 19:00:00 14.3 7 Nordeste 30 Este 0 -- -- 55
2020-01-12 18:00:00 16 24 Este 42 Sudeste 0 -- -- 47
2020-01-12 17:00:00 17 31 Este 42 Este 0 -- -- 46
2020-01-12 16:00:00 17.9 30 Sudeste 46 Este 0 -- -- 43
2020-01-12 15:00:00 17.9 32 Sudeste 46 Sudeste 0 -- -- 43
2020-01-12 14:00:00 18.1 34 Sudeste 47 Sudeste 0 -- -- 41
2020-01-12 13:00:00 18.4 26 Sudeste 41 Sudeste 0 -- -- 38
2020-01-12 12:00:00 18.1 21 Este 32 Este 0 -- -- 42
2020-01-12 11:00:00 17.2 14 Nordeste 22 Nordeste 0 -- -- 56
2020-01-12 10:00:00 15.7 19 Nordeste 28 Nordeste 0 -- -- 66
2020-01-12 09:00:00 14.2 15 Nordeste 21 Nordeste 0 -- -- 70
2020-01-12 08:00:00 13 7 Nordeste 21 Nordeste 0 -- -- 79
2020-01-12 07:00:00 14.4 10 Nordeste 19 Nordeste 0 -- -- 75
2020-01-12 06:00:00 14.6 12 Nordeste 21 Nordeste 0 -- -- 74
2020-01-12 05:00:00 14.7 15 Nordeste 29 Nordeste 0 -- -- 71
2020-01-12 04:00:00 14.6 13 Nordeste 27 Nordeste 0 -- -- 71
2020-01-12 03:00:00 14.6 18 Nordeste 33 Nordeste 0 -- -- 70
2020-01-12 02:00:00 14.9 22 Nordeste 36 Nordeste 0 -- -- 69
2020-01-12 01:00:00 14.7 24 Nordeste 44 Nordeste 0 -- -- 70
2020-01-12 00:00:00 14.6 26 Nordeste 44 Nordeste 0 -- -- 71
2020-01-11 23:00:00 14.5 24 Nordeste 44 Nordeste 0 -- -- 69
2020-01-11 22:00:00 14.7 21 Norte 45 Norte 0 -- -- 71
2020-01-11 21:00:00 14.7 26 Nordeste 43 Nordeste 0 -- -- 67
2020-01-11 20:00:00 14.9 23 Nordeste 43 Nordeste 0 -- -- 69
2020-01-11 19:00:00 15 23 Norte 40 Norte 0 -- -- 73
2020-01-11 18:00:00 15.4 24 Norte 39 Nordeste 0 -- -- 73
2020-01-11 17:00:00 15.6 24 Norte 36 Norte 0 -- -- 71
2020-01-11 16:00:00 15.7 26 Norte 34 Norte 0 -- -- 68
2020-01-11 15:00:00 16.2 25 Norte 41 Nordeste 0 -- -- 68
2020-01-11 14:00:00 15.9 22 Norte 47 Norte 0 -- -- 70
2020-01-11 13:00:00 16 24 Norte 37 Norte 0 -- -- 69
2020-01-11 12:00:00 16.4 24 Norte 44 Norte 0 -- -- 64
2020-01-11 11:00:00 16.1 26 Nordeste 41 Norte 0 -- -- 64
2020-01-11 10:00:00 15.5 25 Nordeste 36 Nordeste 0 -- -- 74
2020-01-11 09:00:00 15.1 19 Nordeste 51 Norte 0 -- -- 67
2020-01-11 08:00:00 14.8 25 Nordeste 39 Norte 0 -- -- 77
2020-01-11 07:00:00 14.3 16 Norte 37 Nordeste 0 -- -- 77
2020-01-11 06:00:00 14.6 23 Norte 44 Nordeste 0 -- -- 70
2020-01-11 05:00:00 14.6 21 Nordeste 42 Nordeste 0 -- -- 75
2020-01-11 04:00:00 14.6 19 Nordeste 37 Nordeste 0 -- -- 71
2020-01-11 03:00:00 14.7 19 Norte 37 Norte 0 -- -- 72
2020-01-11 02:00:00 14.9 22 Norte 33 Nordeste 0 -- -- 72
2020-01-11 01:00:00 15 22 Norte 39 Norte 0 -- -- 75
2020-01-11 00:00:00 15.1 22 Norte 35 Norte 0 -- -- 77
2020-01-10 23:00:00 15.2 23 Nordeste 39 Norte 0 -- -- 77
2020-01-10 22:00:00 15.5 21 Nordeste 40 Nordeste 0 -- -- 81
2020-01-10 21:00:00 15.7 24 Nordeste 39 Nordeste 0 -- -- 83
2020-01-10 20:00:00 15.8 20 Norte 33 Norte 0 -- -- 84
2020-01-10 19:00:00 15.7 14 Norte 30 Norte 0 -- -- 80
2020-01-10 18:00:00 15.9 20 Nordeste 41 Este 0 -- -- 76
2020-01-10 17:00:00 16.6 24 Nordeste 45 Norte 0 -- -- 75
2020-01-10 16:00:00 17 27 Nordeste 48 Nordeste 0 -- -- 73
2020-01-10 15:00:00 17 27 Nordeste 52 Nordeste 0 -- -- 72
2020-01-10 14:00:00 17.1 25 Nordeste 60 Nordeste 0 -- -- 72
2020-01-10 13:00:00 18 39 Nordeste 65 Nordeste 0 -- -- 68
2020-01-10 12:00:00 16.9 32 Nordeste 60 Nordeste 0 -- -- 75
2020-01-10 11:00:00 16.4 36 Nordeste 57 Nordeste 0 -- -- 75
2020-01-10 10:00:00 15.9 33 Nordeste 60 Nordeste 0.2 -- -- 78
2020-01-10 09:00:00 15.4 31 Nordeste 56 Nordeste 0 -- -- 88
2020-01-10 08:00:00 14.4 37 Nordeste 58 Nordeste 0 -- -- 93
2020-01-10 07:00:00 14.8 28 Nordeste 49 Nordeste 0 -- -- 92
2020-01-10 06:00:00 15 30 Nordeste 66 Nordeste 0 -- -- 89
2020-01-10 05:00:00 14.9 25 Nordeste 50 Nordeste 0.4 -- -- 93
2020-01-10 04:00:00 14.8 29 Nordeste 51 Nordeste 0 -- -- 91
2020-01-10 03:00:00 15.8 24 Nordeste 50 Nordeste 0 -- -- 84
2020-01-10 02:00:00 15.6 28 Nordeste 46 Norte 0 -- -- 82
2020-01-10 01:00:00 15.5 27 Nordeste 47 Nordeste 0 -- -- 83
2020-01-10 00:00:00 15.7 29 Nordeste 49 Nordeste 0 -- -- 79
2020-01-09 23:00:00 15.7 25 Nordeste 48 Nordeste 0 -- -- 76
2020-01-09 22:00:00 15.5 28 Nordeste 44 Norte 0 -- -- 74
2020-01-09 21:00:00 15.5 21 Norte 41 Nordeste 0 -- -- 73
2020-01-09 20:00:00 15.4 23 Norte 43 Norte 0 -- -- 69
2020-01-09 19:00:00 15.5 22 Nordeste 48 Nordeste 0 -- -- 71
2020-01-09 18:00:00 15.7 28 Nordeste 48 Norte 0 -- -- 69
2020-01-09 17:00:00 16.4 27 Nordeste 42 Nordeste 0 -- -- 64
2020-01-09 16:00:00 17.1 27 Norte 44 Norte 0 -- -- 64
2020-01-09 15:00:00 17.1 28 Norte 46 Norte 0 -- -- 66
2020-01-09 14:00:00 17.5 28 Nordeste 44 Nordeste 0 -- -- 62
2020-01-09 13:00:00 17.6 30 Nordeste 45 Norte 0 -- -- 58
2020-01-09 12:00:00 17.5 28 Norte 46 Norte 0 -- -- 62
2020-01-09 11:00:00 16.7 27 Nordeste 44 Nordeste 0 -- -- 63
2020-01-09 10:00:00 16.4 22 Norte 36 Nordeste 0 -- -- 66
2020-01-09 09:00:00 15.2 19 Nordeste 36 Nordeste 0 -- -- 73
2020-01-09 08:00:00 14.1 17 Nordeste 32 Norte 0 -- -- 78
2020-01-09 07:00:00 14.1 17 Nordeste 36 Nordeste 0 -- -- 73
2020-01-09 06:00:00 14.6 24 Nordeste 39 Nordeste 0 -- -- 71
2020-01-09 05:00:00 14.3 20 Norte 37 Norte 0 -- -- 76
2020-01-09 04:00:00 14.3 12 Norte 37 Nordeste 0 -- -- 76
2020-01-09 03:00:00 14.6 18 Nordeste 38 Nordeste 0 -- -- 72
2020-01-09 02:00:00 14.6 21 Nordeste 39 Nordeste 0 -- -- 74
2020-01-09 01:00:00 14.7 21 Nordeste 38 Nordeste 0 -- -- 74
2020-01-09 00:00:00 14.9 24 Nordeste 44 Nordeste 0 -- -- 72
2020-01-08 23:00:00 14.5 21 Nordeste 34 Norte 0 -- -- 76
2020-01-08 22:00:00 14.8 22 Nordeste 32 Norte 0 -- -- 73
2020-01-08 21:00:00 15 19 Nordeste 33 Nordeste 0 -- -- 75
2020-01-08 20:00:00 15.1 19 Nordeste 36 Norte 0 -- -- 72
2020-01-08 19:00:00 15 15 Nordeste 33 Norte 0 -- -- 72
2020-01-08 18:00:00 15.6 17 Norte 28 Norte 0 -- -- 67
2020-01-08 17:00:00 16.5 21 Nordeste 34 Nordeste 0 -- -- 65
2020-01-08 16:00:00 16.7 21 Norte 36 Norte 0 -- -- 63
2020-01-08 15:00:00 17.6 23 Nordeste 34 Nordeste 0 -- -- 58
2020-01-08 14:00:00 17.8 19 Norte 33 Nordeste 0 -- -- 61
2020-01-08 13:00:00 17.7 22 Nordeste 32 Nordeste 0 -- -- 62
2020-01-08 12:00:00 17.1 19 Nordeste 33 Nordeste 0 -- -- 66
2020-01-08 11:00:00 17.8 21 Nordeste 30 Nordeste 0 -- -- 63
2020-01-08 10:00:00 16 11 Nordeste 18 Nordeste 0 -- -- 72
2020-01-08 09:00:00 14 5 Este 19 Nordeste 0 -- -- 80
2020-01-08 08:00:00 13.5 12 Nordeste 28 Nordeste 0 -- -- 80
2020-01-08 07:00:00 14.3 21 Nordeste 34 Nordeste 0 -- -- 79
2020-01-08 06:00:00 14.3 22 Nordeste 32 Nordeste 0 -- -- 76
2020-01-08 05:00:00 14.4 19 Nordeste 36 Nordeste 0 -- -- 75
2020-01-08 04:00:00 14.5 21 Nordeste 30 Nordeste 0 -- -- 76
2020-01-08 03:00:00 13.1 14 Nordeste 22 Nordeste 0 -- -- 80
2020-01-08 02:00:00 13.6 17 Nordeste 30 Nordeste 0 -- -- 79
2020-01-08 01:00:00 14.6 21 Nordeste 39 Nordeste 0 -- -- 77
2020-01-08 00:00:00 14.7 21 Nordeste 41 Nordeste 0 -- -- 77
2020-01-07 23:00:00 14.7 23 Nordeste 38 Nordeste 0 -- -- 78
2020-01-07 22:00:00 14.9 19 Nordeste 33 Norte 0 -- -- 78
2020-01-07 21:00:00 14.8 19 Nordeste 32 Nordeste 0 -- -- 79
2020-01-07 20:00:00 14.9 15 Nordeste 30 Nordeste 0 -- -- 77
2020-01-07 19:00:00 15.1 15 Nordeste 33 Nordeste 0 -- -- 74
2020-01-07 18:00:00 15.7 18 Nordeste 34 Nordeste 0 -- -- 74
2020-01-07 17:00:00 16.7 17 Nordeste 31 Nordeste 0 -- -- 68
2020-01-07 16:00:00 17.7 19 Nordeste 32 Nordeste 0 -- -- 63
2020-01-07 15:00:00 17.9 21 Nordeste 35 Nordeste 0 -- -- 64
2020-01-07 14:00:00 18.1 22 Nordeste 36 Nordeste 0 -- -- 65
2020-01-07 13:00:00 18.6 20 Nordeste 31 Nordeste 0 -- -- 65
2020-01-07 12:00:00 18.2 19 Este 33 Este 0 -- -- 56
2020-01-07 11:00:00 17.5 23 Este 31 Nordeste 0 -- -- 62
2020-01-07 10:00:00 16.1 20 Nordeste 26 Este 0 -- -- 73
2020-01-07 09:00:00 14.3 15 Nordeste 24 Este 0 -- -- 80
2020-01-07 08:00:00 12.2 13 Nordeste 22 Nordeste 0 -- -- 83
2020-01-07 07:00:00 12 14 Nordeste 20 Este 0 -- -- 84
2020-01-07 06:00:00 12.1 12 Nordeste 20 Nordeste 0 -- -- 82
2020-01-07 05:00:00 12.3 15 Nordeste 21 Nordeste 0 -- -- 81
2020-01-07 04:00:00 12.4 9 Nordeste 17 Este 0 -- -- 80
2020-01-07 03:00:00 12.6 13 Este 21 Nordeste 0 -- -- 80
2020-01-07 02:00:00 12.8 15 Este 23 Este 0 -- -- 76
2020-01-07 01:00:00 13.3 8 Nordeste 20 Nordeste 0 -- -- 78
2020-01-07 00:00:00 13.3 0 Calma 28 Este 0 -- -- 82
2020-01-06 23:00:00 13.7 23 Este 33 Este 0 -- -- 78
2020-01-06 22:00:00 15 18 Nordeste 29 Nordeste 0 -- -- 67
2020-01-06 21:00:00 14.7 10 Nordeste 21 Norte 0 -- -- 75
2020-01-06 20:00:00 14.3 14 Norte 24 Norte 0 -- -- 69
2020-01-06 19:00:00 13.7 7 Este 24 Nordeste 0 -- -- 74
2020-01-06 18:00:00 13.7 18 Nordeste 40 Nordeste 0 -- -- 80
2020-01-06 17:00:00 15 27 Nordeste 44 Norte 0 -- -- 80
2020-01-06 16:00:00 16.2 20 Norte 30 Norte 0 -- -- 58
2020-01-06 15:00:00 16.9 18 Norte 29 Noroeste 0 -- -- 66
2020-01-06 14:00:00 17.3 16 Norte 29 Norte 0 -- -- 62
2020-01-06 13:00:00 17.3 12 Norte 31 Norte 0 -- -- 62
2020-01-06 12:00:00 17.3 14 Norte 34 Norte 0 -- -- 61
2020-01-06 11:00:00 16.4 18 Norte 30 Norte 0 -- -- 71
2020-01-06 10:00:00 16.4 19 Norte 31 Norte 0 -- -- 64
2020-01-06 09:00:00 15.5 10 Nordeste 30 Norte 0 -- -- 74